Terminal Aerodrome Forecast
Issued by NWS

Home | Current Version | Previous Version | Text Only | Print | Product List | Glossary On
Versions: 1 2 3 4 5 6 7 8 9 10 11 12 13 14 15 16 17 18 19 20 21 22 23
000
FTUS45 KGJT 271732
TAFCNY
TAF
KCNY 271732Z 2718/2818 29005KT P6SM FEW080 BKN150
     FM280600 VRB03KT P6SM SCT070 OVC110
     FM281600 32004KT P6SM SCT090 BKN140=

USA.gov is the U.S. government's official web portal to all federal, state and local government web resources and services.